createdAt,value
2022-11-25T00:01:39.992Z,2.80
2022-11-25T00:04:07.979Z,2.80
2022-11-25T00:06:36.703Z,2.70
2022-11-25T00:09:07.613Z,2.70
2022-11-25T00:11:39.749Z,2.70
2022-11-25T00:14:15.525Z,2.60
2022-11-25T00:16:50.543Z,2.60
2022-11-25T00:19:35.255Z,2.50
2022-11-25T00:22:09.737Z,2.50
2022-11-25T00:24:43.536Z,2.60
2022-11-25T00:27:16.733Z,2.60
2022-11-25T00:29:51.156Z,2.60
2022-11-25T00:32:20.786Z,2.60
2022-11-25T00:34:49.583Z,2.60
2022-11-25T00:37:17.551Z,2.60
2022-11-25T00:39:45.576Z,2.60
2022-11-25T00:42:32.332Z,2.50
2022-11-25T00:45:00.353Z,2.50
2022-11-25T00:47:29.464Z,2.50
2022-11-25T00:49:57.691Z,2.50
2022-11-25T00:52:27.307Z,2.50
2022-11-25T00:54:55.753Z,2.50
2022-11-25T00:57:25.435Z,2.50
2022-11-25T00:59:54.280Z,2.60
2022-11-25T01:02:25.686Z,2.60
2022-11-25T01:04:55.803Z,2.60
2022-11-25T01:07:25.081Z,2.60
2022-11-25T01:09:53.214Z,2.60
2022-11-25T01:12:21.323Z,2.50
2022-11-25T01:14:53.914Z,2.50
2022-11-25T01:17:21.987Z,2.40
2022-11-25T01:19:49.985Z,2.40
2022-11-25T01:22:21.362Z,2.30
2022-11-25T01:24:49.361Z,2.20
2022-11-25T01:27:21.454Z,2.20
2022-11-25T01:29:50.628Z,2.10
2022-11-25T01:32:20.067Z,2.10
2022-11-25T01:34:48.207Z,2.00
2022-11-25T01:37:16.218Z,2.00
2022-11-25T01:39:45.103Z,1.90
2022-11-25T01:42:13.111Z,2.00
2022-11-25T01:44:43.544Z,2.00
2022-11-25T01:47:15.631Z,1.90
2022-11-25T01:49:50.272Z,1.90
2022-11-25T01:52:22.127Z,1.90
2022-11-25T01:54:55.054Z,2.00
2022-11-25T01:57:27.834Z,1.90
2022-11-25T02:00:00.320Z,2.00
2022-11-25T02:02:29.885Z,1.90
2022-11-25T02:05:00.366Z,1.90
2022-11-25T02:07:34.117Z,1.90
2022-11-25T02:10:04.672Z,1.80
2022-11-25T02:12:33.532Z,1.80
2022-11-25T02:15:01.670Z,1.80
2022-11-25T02:17:30.285Z,1.70
2022-11-25T02:20:04.861Z,1.70
2022-11-25T02:22:47.894Z,1.70
2022-11-25T02:25:19.356Z,1.60
2022-11-25T02:27:51.287Z,1.60
2022-11-25T02:30:19.549Z,1.60
2022-11-25T02:32:48.969Z,1.50
2022-11-25T02:35:32.382Z,1.40
2022-11-25T02:38:06.120Z,1.30
2022-11-25T02:40:40.585Z,1.20
2022-11-25T02:43:09.906Z,1.20
2022-11-25T02:45:52.701Z,1.10
2022-11-25T02:48:34.559Z,1.10
2022-11-25T02:51:13.927Z,1.20
2022-11-25T02:53:42.217Z,1.20
2022-11-25T02:56:14.314Z,1.10
2022-11-25T02:58:42.380Z,1.20
2022-11-25T03:01:10.723Z,1.20
2022-11-25T03:03:39.369Z,1.10
2022-11-25T03:06:08.883Z,1.20
2022-11-25T03:08:39.758Z,1.10
2022-11-25T03:11:12.264Z,1.10
2022-11-25T03:13:42.939Z,1.10
2022-11-25T03:16:11.340Z,1.10
2022-11-25T03:18:39.442Z,1.20
2022-11-25T03:21:08.244Z,1.10
2022-11-25T03:23:36.378Z,1.10
2022-11-25T03:26:07.034Z,1.10
2022-11-25T03:28:36.807Z,1.20
2022-11-25T03:31:04.862Z,1.10
2022-11-25T03:33:33.250Z,1.10
2022-11-25T03:36:01.376Z,1.10
2022-11-25T03:38:29.687Z,1.10
2022-11-25T03:40:57.825Z,1.10
2022-11-25T03:43:25.963Z,1.10
2022-11-25T03:45:55.432Z,1.00
2022-11-25T03:48:23.473Z,1.00
2022-11-25T03:50:53.621Z,1.00
2022-11-25T03:53:25.885Z,1.10
2022-11-25T03:55:54.373Z,1.10
2022-11-25T03:58:25.718Z,1.00
2022-11-25T04:00:55.295Z,1.10
2022-11-25T04:03:23.583Z,1.10
2022-11-25T04:05:54.132Z,1.10
2022-11-25T04:08:22.417Z,1.10
2022-11-25T04:10:51.133Z,1.10
2022-11-25T04:13:22.492Z,1.10
2022-11-25T04:15:52.673Z,1.10
2022-11-25T04:18:23.390Z,1.10
2022-11-25T04:20:55.607Z,1.00
2022-11-25T04:23:23.682Z,1.00
2022-11-25T04:25:57.901Z,1.00
2022-11-25T04:28:32.471Z,1.10
2022-11-25T04:31:00.606Z,1.00
2022-11-25T04:33:30.791Z,1.10
2022-11-25T04:35:58.843Z,1.10
2022-11-25T04:38:29.296Z,1.10
2022-11-25T04:40:59.867Z,1.10
2022-11-25T04:43:29.445Z,1.00
2022-11-25T04:46:18.437Z,1.00
2022-11-25T04:48:52.146Z,0.90
2022-11-25T04:51:21.955Z,0.90
2022-11-25T04:53:53.729Z,0.90
2022-11-25T04:56:24.240Z,0.90
2022-11-25T04:59:11.823Z,0.80
2022-11-25T05:01:43.245Z,0.70
2022-11-25T05:04:31.901Z,0.70
2022-11-25T05:07:01.182Z,0.60
2022-11-25T05:09:29.973Z,0.60
2022-11-25T05:12:22.844Z,0.60
2022-11-25T05:14:51.195Z,0.70
2022-11-25T05:17:21.899Z,0.80
2022-11-25T05:19:52.657Z,0.80
2022-11-25T05:22:23.700Z,0.70
2022-11-25T05:24:52.904Z,0.60
2022-11-25T05:27:21.462Z,0.60
2022-11-25T05:29:55.522Z,0.60
2022-11-25T05:32:25.222Z,0.50
2022-11-25T05:34:55.982Z,0.50
2022-11-25T05:37:24.855Z,0.60
2022-11-25T05:40:00.381Z,0.60
2022-11-25T05:42:31.783Z,0.60
2022-11-25T05:45:03.188Z,0.50
2022-11-25T05:47:32.671Z,0.60
2022-11-25T05:50:04.069Z,0.60
2022-11-25T05:52:33.043Z,0.60
2022-11-25T05:55:02.825Z,0.60
2022-11-25T05:57:30.945Z,0.60
2022-11-25T06:00:05.793Z,0.60
2022-11-25T06:02:52.685Z,0.60
2022-11-25T06:05:24.371Z,0.60
2022-11-25T06:07:52.990Z,0.60
2022-11-25T06:10:22.866Z,0.70
2022-11-25T06:12:53.659Z,0.90
2022-11-25T06:15:22.036Z,1.00
2022-11-25T06:17:51.574Z,1.10
2022-11-25T06:20:27.054Z,1.10
2022-11-25T06:22:55.292Z,1.10
2022-11-25T06:25:29.898Z,1.20
2022-11-25T06:28:12.426Z,1.30
2022-11-25T06:30:41.381Z,1.30
2022-11-25T06:33:31.950Z,1.30
2022-11-25T06:36:06.148Z,1.40
2022-11-25T06:38:36.636Z,1.40
2022-11-25T06:41:06.435Z,1.50
2022-11-25T06:43:34.463Z,1.50
2022-11-25T06:46:22.817Z,1.50
2022-11-25T06:49:31.676Z,1.50
2022-11-25T06:52:54.985Z,1.60
2022-11-25T06:55:41.769Z,1.70
2022-11-25T06:58:28.315Z,1.70
2022-11-25T07:01:35.098Z,1.80
2022-11-25T07:05:08.603Z,1.80
2022-11-25T07:07:43.009Z,1.90
2022-11-25T07:10:30.542Z,2.00
2022-11-25T07:13:22.283Z,2.00
2022-11-25T07:16:54.250Z,2.10
2022-11-25T07:20:29.379Z,2.10
2022-11-25T07:27:28.756Z,2.20
2022-11-25T07:30:41.038Z,2.20
2022-11-25T07:32:46.200Z,2.20
2022-11-25T07:35:16.750Z,2.30
2022-11-25T07:37:44.814Z,2.40
2022-11-25T07:40:14.027Z,2.40
2022-11-25T07:42:42.173Z,2.50
2022-11-25T07:45:12.693Z,2.50
2022-11-25T07:47:47.069Z,2.60
2022-11-25T07:50:15.251Z,2.60
2022-11-25T07:52:43.372Z,2.60
2022-11-25T07:55:11.536Z,2.70
2022-11-25T07:57:39.782Z,2.70
2022-11-25T08:00:10.451Z,2.80
2022-11-25T08:02:42.679Z,2.80
2022-11-25T08:05:11.749Z,2.90
2022-11-25T08:07:39.787Z,2.90
2022-11-25T08:10:08.855Z,3.00
2022-11-25T08:12:37.055Z,3.00
2022-11-25T08:15:05.402Z,3.10
2022-11-25T08:17:34.110Z,3.20
2022-11-25T08:20:03.667Z,3.30
2022-11-25T08:22:31.740Z,3.40
2022-11-25T08:24:59.763Z,3.50
2022-11-25T08:27:27.972Z,3.60
2022-11-25T08:29:56.209Z,3.60
2022-11-25T08:32:24.274Z,3.50
2022-11-25T08:34:52.346Z,3.50
2022-11-25T08:37:21.846Z,3.40
2022-11-25T08:39:52.964Z,3.40
2022-11-25T08:42:21.817Z,3.30
2022-11-25T08:44:53.867Z,3.40
2022-11-25T08:47:22.132Z,3.50
2022-11-25T08:49:52.221Z,3.60
2022-11-25T08:52:22.157Z,3.70
2022-11-25T08:54:50.500Z,3.90
2022-11-25T08:57:18.796Z,4.00
2022-11-25T08:59:47.256Z,4.10
2022-11-25T09:02:17.547Z,4.20
2022-11-25T09:04:48.040Z,4.30
2022-11-25T09:07:16.167Z,4.40
2022-11-25T09:09:45.835Z,4.50
2022-11-25T09:12:13.901Z,4.60
2022-11-25T09:14:43.204Z,4.70
2022-11-25T09:17:11.709Z,4.80
2022-11-25T09:19:40.493Z,4.90
2022-11-25T09:22:08.921Z,4.90
2022-11-25T09:24:39.381Z,5.10
2022-11-25T09:27:08.882Z,5.20
2022-11-25T09:29:37.326Z,5.30
2022-11-25T09:32:08.224Z,5.40
2022-11-25T09:34:36.407Z,5.50
2022-11-25T09:37:04.625Z,5.70
2022-11-25T09:39:35.517Z,5.80
2022-11-25T09:42:44.223Z,6.00
2022-11-25T09:45:38.631Z,6.00
2022-11-25T09:48:24.706Z,6.10
2022-11-25T09:51:01.048Z,6.30
2022-11-25T09:53:42.003Z,6.40
2022-11-25T09:56:20.569Z,6.60
2022-11-25T09:58:56.952Z,6.80
2022-11-25T10:01:28.054Z,7.10
2022-11-25T10:03:59.498Z,7.30
2022-11-25T10:06:29.837Z,7.40
2022-11-25T10:08:59.932Z,7.50
2022-11-25T10:11:43.195Z,7.70
2022-11-25T10:14:19.275Z,8.00
2022-11-25T10:16:52.549Z,8.20
2022-11-25T10:19:38.347Z,8.60
2022-11-25T10:22:20.671Z,8.70
2022-11-25T10:24:49.337Z,8.70
2022-11-25T10:27:22.194Z,8.60
2022-11-25T10:30:03.344Z,8.40
2022-11-25T10:32:39.253Z,8.30
2022-11-25T10:35:18.186Z,8.20
2022-11-25T10:37:48.912Z,8.30
2022-11-25T10:40:17.796Z,8.30
2022-11-25T10:42:45.955Z,8.40
2022-11-25T10:45:15.501Z,8.50
2022-11-25T10:48:05.491Z,8.40
2022-11-25T10:50:40.517Z,8.50
2022-11-25T10:53:15.921Z,8.60
2022-11-25T10:55:59.397Z,8.70
2022-11-25T10:58:31.366Z,8.70
2022-11-25T11:01:15.013Z,8.80
2022-11-25T11:03:45.532Z,8.90
2022-11-25T11:06:30.231Z,9.00
2022-11-25T11:08:58.317Z,9.20
2022-11-25T11:11:26.635Z,9.30
2022-11-25T11:14:11.975Z,9.30
2022-11-25T11:16:45.504Z,9.40
2022-11-25T11:19:24.744Z,9.60
2022-11-25T11:21:53.563Z,9.70
2022-11-25T11:24:31.956Z,9.80
2022-11-25T11:27:06.748Z,9.90
2022-11-25T11:29:35.336Z,9.80
2022-11-25T11:32:06.705Z,9.80
2022-11-25T11:35:02.651Z,9.80
2022-11-25T11:37:40.692Z,9.80
2022-11-25T11:40:32.634Z,9.80
2022-11-25T11:43:40.324Z,9.90
2022-11-25T11:46:27.579Z,9.90
2022-11-25T11:49:06.709Z,10.00
2022-11-25T11:51:44.729Z,9.90
2022-11-25T11:54:18.649Z,9.80
2022-11-25T11:56:55.483Z,9.80
2022-11-25T11:59:48.712Z,9.80
2022-11-25T12:02:48.741Z,9.80
2022-11-25T12:05:21.968Z,9.80
2022-11-25T12:08:01.358Z,9.80
2022-11-25T12:10:34.025Z,9.80
2022-11-25T12:13:11.597Z,10.00
2022-11-25T12:15:46.306Z,10.10
2022-11-25T12:18:21.992Z,10.10
2022-11-25T12:21:01.960Z,10.10
2022-11-25T12:23:33.641Z,10.00
2022-11-25T12:26:09.239Z,9.90
2022-11-25T12:28:41.568Z,9.90
2022-11-25T12:31:16.661Z,9.90
2022-11-25T12:33:54.351Z,10.00
2022-11-25T12:36:27.618Z,10.10
2022-11-25T12:38:57.349Z,10.10
2022-11-25T12:41:33.436Z,10.00
2022-11-25T12:44:06.417Z,10.00
2022-11-25T12:46:40.907Z,9.90
2022-11-25T12:49:16.667Z,10.00
2022-11-25T12:52:37.421Z,10.00
2022-11-25T12:55:14.761Z,9.90
2022-11-25T12:58:12.652Z,9.90
2022-11-25T13:01:08.091Z,10.00
2022-11-25T13:04:15.405Z,10.00
2022-11-25T13:07:05.519Z,10.00
2022-11-25T13:09:57.132Z,10.00
2022-11-25T13:12:39.882Z,10.00
2022-11-25T13:15:30.575Z,10.00
2022-11-25T13:18:03.367Z,10.00
2022-11-25T13:20:53.409Z,9.90
2022-11-25T13:23:29.085Z,9.90
2022-11-25T13:26:48.602Z,9.80
2022-11-25T13:29:59.958Z,9.70
2022-11-25T13:32:42.239Z,9.60
2022-11-25T13:35:51.262Z,9.60
2022-11-25T13:38:55.343Z,9.40
2022-11-25T13:41:34.099Z,9.30
2022-11-25T13:44:07.330Z,9.10
2022-11-25T13:46:41.067Z,9.00
2022-11-25T13:49:35.193Z,8.90
2022-11-25T13:52:17.646Z,8.80
2022-11-25T13:54:50.554Z,8.80
2022-11-25T13:57:26.256Z,8.80
2022-11-25T13:59:59.971Z,8.70
2022-11-25T14:02:44.777Z,8.70
2022-11-25T14:05:48.963Z,8.80
2022-11-25T14:08:25.707Z,8.80
2022-11-25T14:11:06.638Z,8.70
2022-11-25T14:13:52.814Z,8.70
2022-11-25T14:16:41.862Z,8.70
2022-11-25T14:19:53.998Z,8.60
2022-11-25T14:23:22.185Z,8.50
2022-11-25T14:25:53.620Z,8.50
2022-11-25T14:28:34.424Z,8.50
2022-11-25T14:31:12.145Z,8.50
2022-11-25T14:33:49.648Z,8.50
2022-11-25T14:36:23.868Z,8.40
2022-11-25T14:38:59.829Z,8.40
2022-11-25T14:41:33.325Z,8.50
2022-11-25T14:44:06.854Z,8.40
2022-11-25T14:46:35.144Z,8.40
2022-11-25T14:49:07.620Z,8.40
2022-11-25T14:51:42.812Z,8.50
2022-11-25T14:54:11.578Z,8.50
2022-11-25T14:56:40.724Z,8.40
2022-11-25T14:59:11.507Z,8.30
2022-11-25T15:01:53.113Z,8.30
2022-11-25T15:04:23.083Z,8.30
2022-11-25T15:06:53.241Z,8.30
2022-11-25T15:09:25.787Z,8.30
2022-11-25T15:11:59.898Z,8.30
2022-11-25T15:14:31.830Z,8.30
2022-11-25T15:17:00.644Z,8.30
2022-11-25T15:19:34.204Z,8.40
2022-11-25T15:27:46.094Z,8.40
2022-11-25T15:30:24.452Z,8.40
2022-11-25T15:32:53.012Z,8.40
2022-11-25T15:35:23.373Z,8.40
2022-11-25T15:38:02.401Z,8.40
2022-11-25T15:41:08.937Z,8.40
2022-11-25T15:43:46.474Z,8.40
2022-11-25T15:46:25.103Z,8.40
2022-11-25T15:48:58.332Z,8.50
2022-11-25T15:51:39.203Z,8.40
2022-11-25T15:54:16.333Z,8.30
2022-11-25T15:56:48.936Z,8.30
2022-11-25T15:59:40.126Z,8.30
2022-11-25T16:02:49.660Z,8.10
2022-11-25T16:05:36.818Z,8.10
2022-11-25T16:08:31.234Z,8.10
2022-11-25T16:11:01.558Z,8.10
2022-11-25T16:13:37.708Z,8.10
2022-11-25T16:16:22.866Z,8.10
2022-11-25T16:19:12.302Z,8.10
2022-11-25T16:21:44.932Z,8.10
2022-11-25T16:24:38.752Z,8.10
2022-11-25T16:27:16.701Z,8.00
2022-11-25T16:29:53.579Z,8.00
2022-11-25T16:32:23.478Z,8.00
2022-11-25T16:34:56.031Z,8.00
2022-11-25T16:37:24.484Z,8.00
2022-11-25T16:40:12.974Z,8.10
2022-11-25T16:42:42.465Z,8.00
2022-11-25T16:45:19.348Z,8.10
2022-11-25T16:47:47.431Z,8.10
2022-11-25T16:50:18.686Z,8.20
2022-11-25T16:52:46.903Z,8.10
2022-11-25T16:55:15.550Z,8.10
2022-11-25T16:57:44.543Z,8.10
2022-11-25T17:00:16.710Z,8.10
2022-11-25T17:02:45.995Z,8.10
2022-11-25T17:05:20.605Z,8.10
2022-11-25T17:07:51.888Z,8.10
2022-11-25T17:10:21.256Z,8.10
2022-11-25T17:12:50.546Z,8.10
2022-11-25T17:15:22.218Z,8.10
2022-11-25T17:17:50.862Z,8.10
2022-11-25T17:20:23.860Z,8.10
2022-11-25T17:22:52.287Z,8.10
2022-11-25T17:25:21.425Z,8.10
2022-11-25T17:27:50.522Z,8.00
2022-11-25T17:30:22.095Z,7.90
2022-11-25T17:32:59.109Z,7.90
2022-11-25T17:35:28.789Z,7.80
2022-11-25T17:37:59.064Z,7.80
2022-11-25T17:40:27.382Z,7.80
2022-11-25T17:42:55.482Z,7.80
2022-11-25T17:45:23.856Z,7.80
2022-11-25T17:47:51.925Z,7.80
2022-11-25T17:50:23.664Z,7.80
2022-11-25T17:52:54.321Z,7.80
2022-11-25T17:55:22.944Z,7.80
2022-11-25T17:57:51.720Z,7.80
2022-11-25T18:00:22.571Z,7.80
2022-11-25T18:02:51.530Z,7.80
2022-11-25T18:05:23.710Z,7.80
2022-11-25T18:07:54.361Z,7.70
2022-11-25T18:10:25.213Z,7.70
2022-11-25T18:12:55.821Z,7.70
2022-11-25T18:15:26.078Z,7.70
2022-11-25T18:18:00.835Z,7.60
2022-11-25T18:20:36.941Z,7.60
2022-11-25T18:23:09.558Z,7.60
2022-11-25T18:25:40.470Z,7.60
2022-11-25T18:28:09.020Z,7.60
2022-11-25T18:30:39.718Z,7.70
2022-11-25T18:33:13.576Z,7.70
2022-11-25T18:35:43.005Z,7.70
2022-11-25T18:38:15.426Z,7.70
2022-11-25T18:40:50.430Z,7.80
2022-11-25T18:43:26.818Z,7.70
2022-11-25T18:45:57.170Z,7.70
2022-11-25T18:48:27.577Z,7.60
2022-11-25T18:51:02.192Z,7.60
2022-11-25T18:53:34.095Z,7.60
2022-11-25T18:56:16.240Z,7.60
2022-11-25T18:58:51.813Z,7.60
2022-11-25T19:01:22.705Z,7.50
2022-11-25T19:03:51.342Z,7.50
2022-11-25T19:06:20.351Z,7.50
2022-11-25T19:08:53.310Z,7.50
2022-11-25T19:11:27.737Z,7.40
2022-11-25T19:13:59.090Z,7.30
2022-11-25T19:16:28.741Z,7.20
2022-11-25T19:18:58.234Z,7.20
2022-11-25T19:21:26.680Z,7.30
2022-11-25T19:23:56.256Z,7.30
2022-11-25T19:26:28.369Z,7.20
2022-11-25T19:29:13.027Z,7.20
2022-11-25T19:31:41.989Z,7.20
2022-11-25T19:34:25.704Z,7.30
2022-11-25T19:37:00.578Z,7.30
2022-11-25T19:39:34.583Z,7.40
2022-11-25T19:42:15.800Z,7.50
2022-11-25T19:44:47.714Z,7.50
2022-11-25T19:47:34.446Z,7.50
2022-11-25T19:50:12.543Z,7.60
2022-11-25T19:52:41.244Z,7.60
2022-11-25T19:55:15.696Z,7.60
2022-11-25T19:57:44.288Z,7.60
2022-11-25T20:00:14.276Z,7.60
2022-11-25T20:02:43.496Z,7.60
2022-11-25T20:05:20.797Z,7.60
2022-11-25T20:07:50.006Z,7.60
2022-11-25T20:10:23.294Z,7.60
2022-11-25T20:13:23.386Z,7.60
2022-11-25T20:16:12.516Z,7.50
2022-11-25T20:18:41.123Z,7.60
2022-11-25T20:21:12.488Z,7.50
2022-11-25T20:23:44.215Z,7.50
2022-11-25T20:26:18.194Z,7.50
2022-11-25T20:28:46.516Z,7.50
2022-11-25T20:31:15.457Z,7.50
2022-11-25T20:33:43.567Z,7.50
2022-11-25T20:36:16.008Z,7.50
2022-11-25T20:38:48.408Z,7.50
2022-11-25T20:41:21.675Z,7.40
2022-11-25T20:44:09.479Z,7.50
2022-11-25T20:46:42.059Z,7.40
2022-11-25T20:49:21.656Z,7.40
2022-11-25T20:51:53.203Z,7.50
2022-11-25T20:55:02.822Z,7.40
2022-11-25T20:57:33.360Z,7.40
2022-11-25T21:00:07.142Z,7.40
2022-11-25T21:02:35.316Z,7.40
2022-11-25T21:05:05.464Z,7.40
2022-11-25T21:07:34.367Z,7.30
2022-11-25T21:10:17.260Z,7.30
2022-11-25T21:12:49.048Z,7.20
2022-11-25T21:15:19.985Z,7.10
2022-11-25T21:17:48.192Z,7.00
2022-11-25T21:20:17.457Z,6.80
2022-11-25T21:22:47.475Z,6.80
2022-11-25T21:25:19.344Z,6.90
2022-11-25T21:27:50.376Z,7.10
2022-11-25T21:30:20.339Z,7.10
2022-11-25T21:32:48.667Z,7.30
2022-11-25T21:35:17.048Z,7.40
2022-11-25T21:37:45.903Z,7.40
2022-11-25T21:40:31.573Z,7.40
2022-11-25T21:43:01.464Z,7.40
2022-11-25T21:45:29.522Z,7.40
2022-11-25T21:47:57.593Z,7.40
2022-11-25T21:50:29.218Z,7.50
2022-11-25T21:52:57.704Z,7.50
2022-11-25T21:55:26.161Z,7.60
2022-11-25T21:57:56.410Z,7.60
2022-11-25T22:00:26.890Z,7.60
2022-11-25T22:02:55.034Z,7.60
2022-11-25T22:05:25.484Z,7.60
2022-11-25T22:07:54.880Z,7.60
2022-11-25T22:10:23.847Z,7.50
2022-11-25T22:12:52.190Z,7.50
2022-11-25T22:15:22.731Z,7.50
2022-11-25T22:17:55.515Z,7.60
2022-11-25T22:20:27.986Z,7.70
2022-11-25T22:22:56.205Z,7.60
2022-11-25T22:25:26.364Z,7.60
2022-11-25T22:27:54.881Z,7.50
2022-11-25T22:30:25.061Z,7.40
2022-11-25T22:33:00.910Z,7.40
2022-11-25T22:35:29.370Z,7.30
2022-11-25T22:37:59.473Z,7.30
2022-11-25T22:40:27.760Z,7.30
2022-11-25T22:42:57.436Z,7.30
2022-11-25T22:45:31.542Z,7.30
2022-11-25T22:48:06.467Z,7.30
2022-11-25T22:50:35.495Z,7.30
2022-11-25T22:53:03.511Z,7.30
2022-11-25T22:55:33.808Z,7.40
2022-11-25T22:58:04.496Z,7.40
2022-11-25T23:00:34.961Z,7.40
2022-11-25T23:03:07.248Z,7.40
2022-11-25T23:05:37.553Z,7.30
2022-11-25T23:08:13.349Z,7.20
2022-11-25T23:10:42.064Z,7.10
2022-11-25T23:13:10.681Z,7.10
2022-11-25T23:15:39.245Z,7.20
2022-11-25T23:18:16.589Z,7.30
2022-11-25T23:20:44.747Z,7.40
2022-11-25T23:23:15.633Z,7.50
2022-11-25T23:25:44.098Z,7.60
2022-11-25T23:28:12.558Z,7.70
2022-11-25T23:30:49.935Z,7.70
2022-11-25T23:33:24.921Z,7.70
2022-11-25T23:35:55.480Z,7.60
2022-11-25T23:38:26.891Z,7.60
2022-11-25T23:40:54.944Z,7.50
2022-11-25T23:43:25.503Z,7.40
2022-11-25T23:45:56.065Z,7.30
2022-11-25T23:48:29.119Z,7.10
2022-11-25T23:51:10.286Z,6.90
2022-11-25T23:53:40.539Z,6.70
2022-11-25T23:56:09.219Z,6.60
2022-11-25T23:58:37.365Z,6.50
